createdAt,value
2019-06-01T00:00:11.783Z,14.67
2019-06-01T00:02:40.592Z,13.57
2019-06-01T00:05:09.258Z,14.67
2019-06-01T00:07:38.656Z,13.87
2019-06-01T00:10:07.583Z,14.13
2019-06-01T00:12:35.896Z,12.77
2019-06-01T00:15:23.032Z,12.40
2019-06-01T00:17:51.364Z,13.60
2019-06-01T00:20:42.195Z,12.27
2019-06-01T00:23:11.026Z,15.10
2019-06-01T00:25:40.397Z,11.60
2019-06-01T00:28:09.349Z,12.83
2019-06-01T00:30:37.657Z,11.60
2019-06-01T00:33:06.011Z,12.67
2019-06-01T00:35:34.269Z,13.47
2019-06-01T00:38:02.549Z,14.23
2019-06-01T00:40:31.188Z,15.03
2019-06-01T00:46:23.298Z,14.83
2019-06-01T00:48:58.688Z,15.10
2019-06-01T01:10:27.581Z,14.73
2019-06-01T01:21:58.245Z,13.83
2019-06-01T01:24:26.874Z,13.87
2019-06-01T01:29:48.882Z,13.90
2019-06-01T01:38:37.962Z,14.83
2019-06-01T01:41:06.315Z,13.17
2019-06-01T02:04:53.621Z,16.17
2019-06-01T02:10:20.160Z,16.23
2019-06-01T02:12:48.512Z,17.13
2019-06-01T02:15:16.856Z,19.37
2019-06-01T02:17:45.202Z,17.53
2019-06-01T02:39:05.335Z,16.47
2019-06-01T03:57:05.314Z,30.10
2019-06-01T03:59:54.031Z,24.63
2019-06-01T04:17:06.099Z,31.57
2019-06-01T04:19:37.598Z,27.00
2019-06-01T04:22:07.951Z,28.60
2019-06-01T04:24:36.694Z,23.67
2019-06-01T04:27:06.064Z,24.57
2019-06-01T04:29:34.570Z,19.40
2019-06-01T04:32:02.923Z,17.50
2019-06-01T04:34:31.195Z,20.20
2019-06-01T04:36:59.493Z,16.70
2019-06-01T04:39:27.844Z,15.07
2019-06-01T04:41:56.157Z,14.70
2019-06-01T04:44:24.481Z,12.87
2019-06-01T04:46:52.804Z,11.00
2019-06-01T04:49:21.082Z,12.00
2019-06-01T04:51:49.397Z,12.20
2019-06-01T04:54:17.736Z,16.63
2019-06-01T04:56:46.042Z,12.87
2019-06-01T04:59:15.351Z,12.57
2019-06-01T05:01:43.935Z,10.50
2019-06-01T05:04:13.277Z,11.70
2019-06-01T05:06:42.005Z,9.40
2019-06-01T05:09:11.375Z,11.90
2019-06-01T05:11:39.872Z,12.10
2019-06-01T05:14:08.136Z,13.93
2019-06-01T05:16:36.450Z,10.30
2019-06-01T05:19:05.966Z,8.73
2019-06-01T05:21:34.377Z,11.30
2019-06-01T05:24:02.633Z,8.73
2019-06-01T05:26:30.884Z,9.47
2019-06-01T05:28:59.111Z,12.30
2019-06-01T05:31:27.369Z,12.07
2019-06-01T05:33:55.617Z,11.53
2019-06-01T05:36:24.011Z,11.40
2019-06-01T05:38:52.255Z,10.97
2019-06-01T05:41:20.480Z,10.90
2019-06-01T05:43:48.797Z,10.73
2019-06-01T05:46:18.068Z,10.50
2019-06-01T05:48:46.518Z,9.13
2019-06-01T05:51:16.811Z,7.93
2019-06-01T05:53:44.656Z,12.97
2019-06-01T05:56:12.891Z,9.60
2019-06-01T05:58:41.109Z,12.70
2019-06-01T06:01:10.366Z,9.97
2019-06-01T06:03:40.592Z,10.70
2019-06-01T06:06:08.844Z,11.27
2019-06-01T06:08:37.164Z,11.73
2019-06-01T06:11:05.403Z,10.20
2019-06-01T06:13:33.624Z,11.57
2019-06-01T06:16:01.878Z,8.97
2019-06-01T06:18:30.106Z,10.67
2019-06-01T06:20:58.356Z,10.13
2019-06-01T06:23:26.578Z,8.73
2019-06-01T06:25:54.901Z,10.30
2019-06-01T06:28:25.993Z,9.83
2019-06-01T06:30:53.062Z,10.97
2019-06-01T06:33:21.432Z,9.30
2019-06-01T06:35:49.723Z,8.10
2019-06-01T06:38:17.979Z,8.50
2019-06-01T06:40:46.229Z,8.07
2019-06-01T06:43:20.068Z,9.50
2019-06-01T06:45:44.352Z,8.87
2019-06-01T06:48:12.580Z,8.30
2019-06-01T06:50:40.849Z,11.17
2019-06-01T06:53:22.262Z,8.57
2019-06-01T06:55:38.944Z,10.17
2019-06-01T06:58:07.662Z,9.45
2019-06-01T07:00:36.377Z,8.85
2019-06-01T07:03:05.434Z,7.35
2019-06-01T07:05:34.585Z,7.23
2019-06-01T07:08:02.912Z,8.10
2019-06-01T07:10:31.120Z,10.60
2019-06-01T07:12:59.445Z,8.83
2019-06-01T07:15:27.768Z,7.60
2019-06-01T07:17:56.119Z,8.20
2019-06-01T07:20:24.313Z,8.75
2019-06-01T07:22:52.569Z,7.37
2019-06-01T07:25:21.799Z,8.63
2019-06-01T07:27:50.162Z,9.50
2019-06-01T07:30:20.544Z,6.80
2019-06-01T07:32:48.774Z,7.08
2019-06-01T07:35:17.034Z,6.60
2019-06-01T07:37:45.420Z,6.00
2019-06-01T07:40:14.386Z,5.53
2019-06-01T07:42:42.897Z,5.58
2019-06-01T07:45:11.257Z,5.80
2019-06-01T07:47:39.468Z,6.50
2019-06-01T07:50:07.759Z,4.55
2019-06-01T07:52:36.260Z,5.22
2019-06-01T07:55:05.189Z,7.78
2019-06-01T07:57:33.756Z,7.50
2019-06-01T08:00:02.292Z,5.50
2019-06-01T08:02:30.867Z,6.80
2019-06-01T08:04:59.270Z,6.30
2019-06-01T08:07:27.749Z,5.45
2019-06-01T08:09:56.019Z,7.75
2019-06-01T08:12:25.430Z,5.83
2019-06-01T08:14:53.955Z,6.85
2019-06-01T08:17:23.930Z,4.53
2019-06-01T08:19:52.243Z,8.78
2019-06-01T08:22:20.389Z,7.08
2019-06-01T08:24:48.642Z,8.40
2019-06-01T08:27:16.892Z,6.92
2019-06-01T08:29:45.355Z,6.30
2019-06-01T08:32:13.585Z,7.70
2019-06-01T08:34:42.077Z,6.65
2019-06-01T08:37:10.474Z,8.05
2019-06-01T08:39:38.706Z,5.90
2019-06-01T08:42:06.985Z,6.53
2019-06-01T08:44:35.236Z,7.47
2019-06-01T08:47:03.700Z,5.65
2019-06-01T08:49:32.482Z,5.37
2019-06-01T08:52:01.142Z,6.40
2019-06-01T08:54:30.295Z,6.95
2019-06-01T08:56:58.604Z,4.47
2019-06-01T08:59:26.852Z,3.20
2019-06-01T09:02:01.156Z,3.80
2019-06-01T09:04:29.364Z,4.35
2019-06-01T09:06:57.617Z,6.03
2019-06-01T09:09:26.885Z,2.62
2019-06-01T09:11:55.292Z,6.03
2019-06-01T09:14:23.589Z,3.35
2019-06-01T09:16:51.841Z,3.08
2019-06-01T09:19:20.061Z,2.15
2019-06-01T09:21:48.312Z,2.92
2019-06-01T09:24:16.611Z,4.17
2019-06-01T09:26:44.852Z,2.15
2019-06-01T09:29:13.072Z,2.70
2019-06-01T09:31:41.323Z,5.15
2019-06-01T09:34:09.544Z,3.42
2019-06-01T09:36:37.796Z,1.85
2019-06-01T09:39:07.289Z,2.70
2019-06-01T09:41:36.458Z,2.67
2019-06-01T09:44:05.130Z,2.75
2019-06-01T09:46:34.002Z,2.67
2019-06-01T09:49:03.259Z,3.37
2019-06-01T09:51:31.512Z,3.75
2019-06-01T09:53:59.738Z,3.50
2019-06-01T09:56:29.263Z,2.27
2019-06-01T09:58:57.918Z,3.90
2019-06-01T10:01:26.239Z,2.87
2019-06-01T10:03:54.463Z,1.98
2019-06-01T10:06:22.961Z,1.67
2019-06-01T10:08:51.188Z,1.35
2019-06-01T10:11:19.505Z,4.22
2019-06-01T10:13:47.725Z,2.37
2019-06-01T10:16:16.330Z,2.92
2019-06-01T10:18:44.796Z,3.22
2019-06-01T10:21:13.100Z,5.62
2019-06-01T10:23:42.592Z,2.05
2019-06-01T10:26:11.256Z,3.85
2019-06-01T10:28:40.116Z,2.58
2019-06-01T10:31:08.542Z,6.47
2019-06-01T10:33:37.481Z,2.35
2019-06-01T10:36:19.986Z,4.05
2019-06-01T10:38:37.440Z,4.03
2019-06-01T10:41:05.761Z,2.47
2019-06-01T10:43:35.355Z,3.95
2019-06-01T10:46:04.078Z,3.00
2019-06-01T10:48:33.143Z,2.55
2019-06-01T10:51:02.600Z,3.83
2019-06-01T10:53:31.938Z,3.67
2019-06-01T10:56:00.286Z,4.97
2019-06-01T10:58:28.564Z,2.87
2019-06-01T11:00:56.948Z,3.10
2019-06-01T11:03:25.236Z,3.37
2019-06-01T11:05:53.560Z,4.45
2019-06-01T11:08:21.845Z,3.25
2019-06-01T11:10:50.140Z,2.87
2019-06-01T11:13:18.394Z,5.17
2019-06-01T11:15:46.639Z,2.17
2019-06-01T11:18:15.020Z,3.98
2019-06-01T11:20:43.676Z,4.05
2019-06-01T11:23:12.222Z,3.62
2019-06-01T11:25:41.671Z,4.90
2019-06-01T11:28:10.407Z,3.95
2019-06-01T11:30:39.990Z,4.80
2019-06-01T11:33:09.497Z,2.40
2019-06-01T11:35:39.214Z,2.77
2019-06-01T11:38:07.995Z,2.83
2019-06-01T11:40:36.612Z,2.90
2019-06-01T11:43:05.116Z,2.35
2019-06-01T11:45:36.562Z,3.05
2019-06-01T11:48:05.013Z,3.30
2019-06-01T11:50:35.102Z,2.27
2019-06-01T11:53:03.824Z,3.12
2019-06-01T11:55:35.143Z,1.80
2019-06-01T11:58:04.278Z,3.52
2019-06-01T12:00:41.530Z,4.00
2019-06-01T12:03:11.007Z,1.90
2019-06-01T12:05:42.128Z,1.75
2019-06-01T12:08:16.704Z,2.72
2019-06-01T12:10:45.373Z,2.75
2019-06-01T12:13:13.784Z,2.25
2019-06-01T12:15:42.319Z,5.28
2019-06-01T12:18:10.816Z,4.45
2019-06-01T12:20:40.722Z,2.40
2019-06-01T12:23:09.851Z,4.33
2019-06-01T12:25:38.294Z,2.67
2019-06-01T12:28:06.601Z,2.30
2019-06-01T12:30:34.849Z,1.87
2019-06-01T12:33:03.080Z,3.20
2019-06-01T12:35:31.325Z,2.85
2019-06-01T12:38:06.572Z,3.00
2019-06-01T12:40:29.564Z,2.15
2019-06-01T12:42:57.791Z,3.20
2019-06-01T12:45:26.113Z,3.87
2019-06-01T12:47:58.331Z,2.40
2019-06-01T12:50:24.353Z,3.83
2019-06-01T12:52:52.780Z,3.40
2019-06-01T12:55:21.275Z,2.27
2019-06-01T12:57:49.727Z,1.40
2019-06-01T13:00:19.046Z,4.20
2019-06-01T13:02:59.317Z,3.40
2019-06-01T13:05:17.830Z,2.08
2019-06-01T13:07:56.136Z,3.90
2019-06-01T13:10:16.234Z,1.87
2019-06-01T13:12:45.174Z,2.25
2019-06-01T13:15:13.767Z,1.90
2019-06-01T13:17:43.013Z,3.42
2019-06-01T13:20:11.808Z,3.20
2019-06-01T13:22:41.220Z,3.47
2019-06-01T13:25:09.593Z,2.20
2019-06-01T13:27:40.812Z,2.55
2019-06-01T13:30:07.843Z,3.75
2019-06-01T13:32:36.098Z,2.47
2019-06-01T13:35:05.787Z,2.30
2019-06-01T13:37:34.032Z,1.90
2019-06-01T13:40:02.331Z,1.82
2019-06-01T13:42:30.649Z,1.65
2019-06-01T13:44:59.580Z,3.17
2019-06-01T13:47:27.867Z,3.87
2019-06-01T13:49:56.085Z,2.37
2019-06-01T13:52:24.342Z,1.77
2019-06-01T13:54:52.592Z,1.50
2019-06-01T13:57:20.825Z,1.40
2019-06-01T13:59:49.218Z,2.30
2019-06-01T14:02:17.565Z,2.22
2019-06-01T14:04:45.789Z,3.15
2019-06-01T14:07:14.040Z,2.72
2019-06-01T14:09:42.514Z,4.12
2019-06-01T14:12:10.757Z,2.20
2019-06-01T14:14:39.012Z,1.62
2019-06-01T14:17:07.633Z,1.57
2019-06-01T14:19:35.861Z,2.20
2019-06-01T14:22:04.286Z,2.10
2019-06-01T14:24:32.510Z,2.52
2019-06-01T14:27:00.769Z,2.37
2019-06-01T14:29:29.048Z,2.10
2019-06-01T14:31:57.440Z,2.10
2019-06-01T14:34:25.617Z,2.27
2019-06-01T14:36:54.580Z,2.87
2019-06-01T14:39:23.093Z,3.27
2019-06-01T14:41:51.332Z,2.10
2019-06-01T14:44:19.545Z,1.90
2019-06-01T14:46:56.030Z,3.17
2019-06-01T14:49:17.656Z,3.70
2019-06-01T14:51:45.918Z,2.50
2019-06-01T14:54:14.142Z,2.10
2019-06-01T14:56:42.464Z,2.53
2019-06-01T14:59:10.697Z,2.83
2019-06-01T15:01:39.188Z,2.67
2019-06-01T15:04:08.229Z,2.93
2019-06-01T15:06:36.522Z,2.60
2019-06-01T15:09:18.459Z,2.50
2019-06-01T15:11:41.376Z,2.23
2019-06-01T15:14:09.777Z,4.80
2019-06-01T15:16:37.991Z,2.87
2019-06-01T15:19:06.323Z,2.50
2019-06-01T15:21:34.599Z,3.83
2019-06-01T15:24:02.868Z,4.17
2019-06-01T15:26:31.068Z,3.60
2019-06-01T15:29:03.160Z,2.93
2019-06-01T15:31:32.055Z,2.47
2019-06-01T15:34:01.819Z,5.97
2019-06-01T15:36:30.360Z,2.43
2019-06-01T15:38:59.802Z,3.53
2019-06-01T15:41:29.068Z,5.27
2019-06-01T15:43:57.644Z,2.47
2019-06-01T15:46:25.920Z,1.80
2019-06-01T15:48:55.988Z,3.60
2019-06-01T15:51:24.212Z,2.30
2019-06-01T15:53:52.928Z,2.13
2019-06-01T15:56:23.606Z,3.13
2019-06-01T15:58:53.618Z,2.57
2019-06-01T16:01:21.300Z,2.57
2019-06-01T16:03:49.591Z,3.97
2019-06-01T16:06:17.842Z,1.97
2019-06-01T16:08:46.295Z,2.13
2019-06-01T16:11:14.508Z,3.17
2019-06-01T16:13:42.767Z,2.03
2019-06-01T16:16:10.981Z,2.90
2019-06-01T16:18:39.228Z,4.40
2019-06-01T16:21:07.853Z,3.40
2019-06-01T16:23:49.434Z,2.77
2019-06-01T16:26:15.774Z,2.37
2019-06-01T16:28:36.047Z,3.13
2019-06-01T16:31:04.843Z,2.97
2019-06-01T16:33:33.089Z,3.20
2019-06-01T16:36:01.314Z,2.93
2019-06-01T16:38:29.541Z,4.00
2019-06-01T16:40:57.821Z,3.63
2019-06-01T16:43:26.109Z,3.10
2019-06-01T16:45:55.614Z,2.10
2019-06-01T16:48:24.065Z,3.93
2019-06-01T16:50:52.362Z,3.47
2019-06-01T16:53:21.195Z,2.60
2019-06-01T16:55:49.428Z,1.90
2019-06-01T16:58:17.769Z,2.27
2019-06-01T17:00:46.057Z,2.53
2019-06-01T17:03:14.619Z,4.77
2019-06-01T17:05:42.951Z,8.80
2019-06-01T17:08:11.540Z,4.00
2019-06-01T17:10:39.697Z,3.53
2019-06-01T17:13:08.933Z,4.03
2019-06-01T17:15:37.340Z,2.23
2019-06-01T17:18:08.817Z,2.67
2019-06-01T17:20:42.714Z,3.93
2019-06-01T17:23:25.936Z,1.93
2019-06-01T17:25:40.986Z,2.17
2019-06-01T17:28:09.421Z,4.43
2019-06-01T17:30:37.885Z,3.60
2019-06-01T17:33:06.538Z,2.53
2019-06-01T17:35:36.181Z,2.60
2019-06-01T17:38:05.352Z,3.63
2019-06-01T17:40:38.457Z,4.23
2019-06-01T17:43:04.731Z,4.13
2019-06-01T17:45:33.210Z,3.97
2019-06-01T17:48:20.727Z,3.50
2019-06-01T17:50:31.753Z,2.97
2019-06-01T17:53:00.573Z,3.10
2019-06-01T17:55:35.791Z,6.73
2019-06-01T17:58:05.583Z,5.77
2019-06-01T18:00:34.098Z,12.17
2019-06-01T18:03:03.481Z,9.30
2019-06-01T18:05:32.111Z,11.57
2019-06-01T18:08:01.748Z,11.90
2019-06-01T18:10:30.356Z,11.80
2019-06-01T18:12:58.681Z,13.80
2019-06-01T18:15:26.997Z,11.27
2019-06-01T18:17:55.229Z,10.90
2019-06-01T18:20:23.551Z,10.60
2019-06-01T18:22:51.836Z,9.10
2019-06-01T18:25:21.635Z,9.90
2019-06-01T18:27:49.913Z,7.40
2019-06-01T18:30:18.437Z,11.27
2019-06-01T18:32:46.730Z,9.60
2019-06-01T18:35:15.053Z,10.80
2019-06-01T18:37:43.275Z,28.80
2019-06-01T18:40:11.951Z,24.27
2019-06-01T18:42:40.584Z,25.80
2019-06-01T18:45:09.721Z,25.73
2019-06-01T18:47:38.096Z,26.20
2019-06-01T18:50:10.018Z,20.10
2019-06-01T18:52:39.309Z,15.33
2019-06-01T18:55:08.524Z,11.70
2019-06-01T18:57:38.756Z,9.33
2019-06-01T19:00:10.975Z,7.53
2019-06-01T19:02:37.825Z,6.67
2019-06-01T19:05:07.145Z,6.27
2019-06-01T19:07:35.377Z,7.43
2019-06-01T19:10:05.309Z,7.00
2019-06-01T19:12:33.549Z,6.97
2019-06-01T19:15:02.018Z,7.00
2019-06-01T19:17:30.627Z,4.57
2019-06-01T19:19:58.863Z,2.87
2019-06-01T19:22:27.076Z,6.30
2019-06-01T19:24:55.338Z,6.23
2019-06-01T19:27:23.581Z,6.13
2019-06-01T19:29:51.812Z,5.80
2019-06-01T19:32:21.373Z,5.20
2019-06-01T19:34:49.960Z,5.77
2019-06-01T19:37:18.844Z,6.77
2019-06-01T19:39:47.244Z,8.27
2019-06-01T19:42:15.630Z,7.03
2019-06-01T19:44:43.820Z,8.57
2019-06-01T19:47:12.037Z,8.10
2019-06-01T19:49:43.731Z,9.97
2019-06-01T19:52:10.842Z,9.80
2019-06-01T19:54:39.315Z,7.90
2019-06-01T19:57:07.521Z,8.70
2019-06-01T19:59:35.788Z,15.37
2019-06-01T20:02:04.168Z,15.00
2019-06-01T20:04:32.446Z,20.67
2019-06-01T20:07:00.681Z,9.93
2019-06-01T20:09:28.900Z,11.30
2019-06-01T20:12:01.986Z,10.53
2019-06-01T20:14:29.169Z,9.90
2019-06-01T20:16:57.438Z,10.33
2019-06-01T20:19:25.796Z,10.23
2019-06-01T20:21:54.095Z,11.90
2019-06-01T20:24:22.462Z,8.07
2019-06-01T20:26:50.793Z,8.30
2019-06-01T20:29:19.777Z,7.77
2019-06-01T20:31:48.256Z,8.47
2019-06-01T20:34:17.861Z,9.40
2019-06-01T20:36:46.492Z,11.73
2019-06-01T20:39:14.759Z,12.47
2019-06-01T20:41:43.030Z,9.37
2019-06-01T20:44:12.506Z,8.97
2019-06-01T20:46:40.926Z,8.50
2019-06-01T20:49:09.178Z,7.27
2019-06-01T20:51:37.656Z,9.77
2019-06-01T20:54:05.977Z,6.43
2019-06-01T20:56:34.197Z,6.60
2019-06-01T20:59:02.462Z,6.57
2019-06-01T21:01:30.859Z,6.13
2019-06-01T21:04:00.484Z,5.73
2019-06-01T21:06:29.044Z,6.53
2019-06-01T21:08:57.366Z,6.40
2019-06-01T21:11:25.781Z,6.03
2019-06-01T21:13:54.379Z,6.70
2019-06-01T21:16:24.751Z,6.50
2019-06-01T21:18:53.509Z,6.63
2019-06-01T21:21:22.513Z,7.60
2019-06-01T21:23:50.991Z,7.67
2019-06-01T21:26:49.826Z,6.83
2019-06-01T21:29:18.758Z,8.10
2019-06-01T21:31:47.533Z,6.20
2019-06-01T21:34:17.105Z,13.83
2019-06-01T21:36:45.560Z,9.17
2019-06-01T21:39:15.337Z,8.07
2019-06-01T21:41:44.861Z,9.37
2019-06-01T21:44:13.510Z,8.07
2019-06-01T21:46:42.118Z,7.83
2019-06-01T21:49:10.379Z,7.70
2019-06-01T21:51:38.601Z,6.83
2019-06-01T21:54:06.859Z,6.50
2019-06-01T21:56:35.075Z,7.77
2019-06-01T21:59:03.497Z,9.00
2019-06-01T22:01:31.918Z,7.17
2019-06-01T22:04:00.317Z,6.30
2019-06-01T22:06:28.646Z,7.43
2019-06-01T22:08:56.959Z,9.17
2019-06-01T22:11:25.631Z,6.73
2019-06-01T22:13:53.812Z,9.67
2019-06-01T22:16:23.631Z,8.00
2019-06-01T22:18:52.086Z,8.20
2019-06-01T22:21:21.638Z,11.00
2019-06-01T22:23:49.945Z,9.23
2019-06-01T22:26:18.289Z,9.60
2019-06-01T22:28:46.691Z,8.80
2019-06-01T22:31:14.999Z,9.00
2019-06-01T22:33:44.704Z,7.73
2019-06-01T22:36:13.331Z,8.93
2019-06-01T22:38:41.647Z,8.30
2019-06-01T22:41:10.083Z,8.07
2019-06-01T22:43:46.221Z,9.10
2019-06-01T22:46:08.211Z,11.23
2019-06-01T22:48:36.441Z,10.40
2019-06-01T22:51:04.782Z,9.37
2019-06-01T22:53:33.017Z,10.23
2019-06-01T22:56:01.284Z,10.50
2019-06-01T22:58:29.675Z,8.07
2019-06-01T23:00:58.045Z,7.10
2019-06-01T23:03:26.343Z,11.20
2019-06-01T23:05:54.601Z,10.13
2019-06-01T23:08:24.072Z,8.23
2019-06-01T23:10:52.834Z,7.57
2019-06-01T23:13:21.289Z,8.03
2019-06-01T23:15:49.482Z,8.80
2019-06-01T23:18:17.773Z,9.50
2019-06-01T23:20:46.006Z,9.13
2019-06-01T23:23:14.253Z,8.90
2019-06-01T23:25:42.542Z,9.43
2019-06-01T23:28:10.860Z,10.23
2019-06-01T23:30:39.095Z,9.30
2019-06-01T23:33:07.348Z,8.37
2019-06-01T23:35:35.584Z,10.13
2019-06-01T23:38:04.009Z,9.10
2019-06-01T23:40:32.774Z,9.20
2019-06-01T23:43:01.237Z,12.27
2019-06-01T23:45:29.466Z,9.80
2019-06-01T23:47:57.730Z,9.50
2019-06-01T23:50:27.118Z,10.90
2019-06-01T23:52:55.568Z,9.30
2019-06-01T23:55:23.878Z,10.27
2019-06-01T23:57:52.125Z,9.17
